sensor_id;sensor_type;location;lat;lon;timestamp;pressure;altitude;pressure_sealevel;temperature;humidity
72570;BME280;60594;50.204;8.844;2023-04-26T00:02:17;100120.66;;;5.53;79.01
72570;BME280;60594;50.204;8.844;2023-04-26T00:04:43;100128.59;;;5.53;77.63
72570;BME280;60594;50.204;8.844;2023-04-26T00:07:11;100124.88;;;5.42;79.24
72570;BME280;60594;50.204;8.844;2023-04-26T00:09:39;100125.44;;;5.33;80.16
72570;BME280;60594;50.204;8.844;2023-04-26T00:12:07;100131.69;;;5.32;80.36
72570;BME280;60594;50.204;8.844;2023-04-26T00:14:34;100124.47;;;5.20;81.25
72570;BME280;60594;50.204;8.844;2023-04-26T00:17:00;100132.38;;;5.20;81.27
72570;BME280;60594;50.204;8.844;2023-04-26T00:19:28;100130.34;;;4.95;82.19
72570;BME280;60594;50.204;8.844;2023-04-26T00:21:55;100142.50;;;4.84;82.24
72570;BME280;60594;50.204;8.844;2023-04-26T00:24:21;100141.47;;;4.71;82.83
72570;BME280;60594;50.204;8.844;2023-04-26T00:26:48;100147.06;;;4.51;83.32
72570;BME280;60594;50.204;8.844;2023-04-26T00:29:14;100139.22;;;4.49;82.69
72570;BME280;60594;50.204;8.844;2023-04-26T00:31:41;100142.97;;;4.45;80.72
72570;BME280;60594;50.204;8.844;2023-04-26T00:34:08;100148.97;;;4.63;78.65
72570;BME280;60594;50.204;8.844;2023-04-26T00:36:34;100131.78;;;4.71;78.59
72570;BME280;60594;50.204;8.844;2023-04-26T00:39:02;100140.84;;;4.81;78.49
72570;BME280;60594;50.204;8.844;2023-04-26T00:41:29;100136.50;;;4.96;76.82
72570;BME280;60594;50.204;8.844;2023-04-26T00:43:55;100144.81;;;5.04;78.16
72570;BME280;60594;50.204;8.844;2023-04-26T00:46:22;100132.94;;;5.11;76.87
72570;BME280;60594;50.204;8.844;2023-04-26T00:48:49;100137.00;;;5.16;76.28
72570;BME280;60594;50.204;8.844;2023-04-26T00:51:16;100135.72;;;5.23;75.53
72570;BME280;60594;50.204;8.844;2023-04-26T00:53:42;100140.22;;;5.21;78.52
72570;BME280;60594;50.204;8.844;2023-04-26T00:56:09;100141.72;;;5.11;80.51
72570;BME280;60594;50.204;8.844;2023-04-26T00:58:37;100140.22;;;5.07;81.06
72570;BME280;60594;50.204;8.844;2023-04-26T01:01:04;100141.50;;;5.00;80.47
72570;BME280;60594;50.204;8.844;2023-04-26T01:03:30;100146.97;;;4.97;80.19
72570;BME280;60594;50.204;8.844;2023-04-26T01:05:57;100143.38;;;4.98;80.51
72570;BME280;60594;50.204;8.844;2023-04-26T01:08:23;100138.94;;;4.99;79.30
72570;BME280;60594;50.204;8.844;2023-04-26T01:10:50;100141.78;;;4.96;79.79
72570;BME280;60594;50.204;8.844;2023-04-26T01:13:18;100133.28;;;4.91;79.93
72570;BME280;60594;50.204;8.844;2023-04-26T01:15:47;100141.69;;;4.97;80.25
72570;BME280;60594;50.204;8.844;2023-04-26T01:18:14;100147.94;;;4.81;81.17
72570;BME280;60594;50.204;8.844;2023-04-26T01:20:40;100142.28;;;4.87;81.12
72570;BME280;60594;50.204;8.844;2023-04-26T01:23:09;100146.56;;;4.89;79.83
72570;BME280;60594;50.204;8.844;2023-04-26T01:25:35;100144.19;;;4.85;79.55
72570;BME280;60594;50.204;8.844;2023-04-26T01:28:03;100145.78;;;4.87;80.25
72570;BME280;60594;50.204;8.844;2023-04-26T01:30:29;100139.25;;;4.79;80.68
72570;BME280;60594;50.204;8.844;2023-04-26T01:32:55;100137.56;;;4.78;80.74
72570;BME280;60594;50.204;8.844;2023-04-26T01:35:24;100136.78;;;4.76;80.55
72570;BME280;60594;50.204;8.844;2023-04-26T01:37:51;100130.66;;;4.75;80.92
72570;BME280;60594;50.204;8.844;2023-04-26T01:40:17;100132.44;;;4.75;81.61
72570;BME280;60594;50.204;8.844;2023-04-26T01:42:44;100127.94;;;4.77;81.11
72570;BME280;60594;50.204;8.844;2023-04-26T01:45:10;100129.97;;;4.72;81.70
72570;BME280;60594;50.204;8.844;2023-04-26T01:48:15;100131.69;;;4.73;81.87
72570;BME280;60594;50.204;8.844;2023-04-26T01:50:41;100131.69;;;4.73;82.19
72570;BME280;60594;50.204;8.844;2023-04-26T01:53:07;100127.41;;;4.70;80.50
72570;BME280;60594;50.204;8.844;2023-04-26T01:55:35;100132.66;;;4.56;81.50
72570;BME280;60594;50.204;8.844;2023-04-26T01:58:02;100142.44;;;4.54;82.35
72570;BME280;60594;50.204;8.844;2023-04-26T02:00:29;100138.19;;;4.52;83.04
72570;BME280;60594;50.204;8.844;2023-04-26T02:02:56;100141.16;;;4.46;82.12
72570;BME280;60594;50.204;8.844;2023-04-26T02:05:22;100142.28;;;4.42;81.30
72570;BME280;60594;50.204;8.844;2023-04-26T02:07:49;100142.63;;;4.36;81.35
72570;BME280;60594;50.204;8.844;2023-04-26T02:10:16;100142.09;;;4.29;82.13
72570;BME280;60594;50.204;8.844;2023-04-26T02:12:44;100140.06;;;4.19;82.09
72570;BME280;60594;50.204;8.844;2023-04-26T02:15:11;100140.06;;;4.19;82.41
72570;BME280;60594;50.204;8.844;2023-04-26T02:17:37;100144.56;;;4.17;81.15
72570;BME280;60594;50.204;8.844;2023-04-26T02:20:05;100140.84;;;4.05;81.40
72570;BME280;60594;50.204;8.844;2023-04-26T02:22:35;100139.78;;;3.77;84.68
72570;BME280;60594;50.204;8.844;2023-04-26T02:25:02;100146.81;;;3.76;84.00
72570;BME280;60594;50.204;8.844;2023-04-26T02:27:30;100148.66;;;3.58;86.01
72570;BME280;60594;50.204;8.844;2023-04-26T02:29:58;100148.16;;;3.67;84.28
72570;BME280;60594;50.204;8.844;2023-04-26T02:32:25;100151.72;;;3.67;85.57
72570;BME280;60594;50.204;8.844;2023-04-26T02:34:51;100154.28;;;3.68;85.62
72570;BME280;60594;50.204;8.844;2023-04-26T02:37:18;100145.88;;;3.62;86.31
72570;BME280;60594;50.204;8.844;2023-04-26T02:39:49;100146.94;;;3.57;85.68
72570;BME280;60594;50.204;8.844;2023-04-26T02:42:16;100152.19;;;3.57;86.64
72570;BME280;60594;50.204;8.844;2023-04-26T02:44:42;100157.03;;;3.49;86.44
72570;BME280;60594;50.204;8.844;2023-04-26T02:47:09;100146.34;;;3.52;85.52
72570;BME280;60594;50.204;8.844;2023-04-26T02:49:36;100145.38;;;3.53;85.97
72570;BME280;60594;50.204;8.844;2023-04-26T02:52:03;100151.75;;;3.49;85.17
72570;BME280;60594;50.204;8.844;2023-04-26T02:54:30;100152.94;;;3.44;86.29
72570;BME280;60594;50.204;8.844;2023-04-26T02:56:57;100155.56;;;3.44;86.24
72570;BME280;60594;50.204;8.844;2023-04-26T02:59:24;100151.47;;;3.38;86.35
72570;BME280;60594;50.204;8.844;2023-04-26T03:01:50;100152.25;;;3.40;87.29
72570;BME280;60594;50.204;8.844;2023-04-26T03:04:17;100142.81;;;3.36;86.96
72570;BME280;60594;50.204;8.844;2023-04-26T03:06:44;100141.06;;;3.35;87.29
72570;BME280;60594;50.204;8.844;2023-04-26T03:09:11;100137.84;;;3.30;86.52
72570;BME280;60594;50.204;8.844;2023-04-26T03:11:37;100143.59;;;3.21;86.95
72570;BME280;60594;50.204;8.844;2023-04-26T03:14:04;100146.38;;;3.18;87.07
72570;BME280;60594;50.204;8.844;2023-04-26T03:16:39;100147.47;;;3.14;87.25
72570;BME280;60594;50.204;8.844;2023-04-26T03:19:07;100146.31;;;3.20;87.74
72570;BME280;60594;50.204;8.844;2023-04-26T03:21:34;100148.06;;;3.19;87.27
72570;BME280;60594;50.204;8.844;2023-04-26T03:24:01;100151.25;;;3.09;88.61
72570;BME280;60594;50.204;8.844;2023-04-26T03:26:28;100147.31;;;3.17;87.69
72570;BME280;60594;50.204;8.844;2023-04-26T03:28:54;100149.00;;;3.01;88.83
72570;BME280;60594;50.204;8.844;2023-04-26T03:31:21;100146.16;;;3.06;87.70
72570;BME280;60594;50.204;8.844;2023-04-26T03:33:48;100150.69;;;3.02;87.30
72570;BME280;60594;50.204;8.844;2023-04-26T03:36:15;100152.44;;;3.03;88.38
72570;BME280;60594;50.204;8.844;2023-04-26T03:38:42;100152.16;;;3.08;88.48
72570;BME280;60594;50.204;8.844;2023-04-26T03:41:09;100146.91;;;3.08;88.38
72570;BME280;60594;50.204;8.844;2023-04-26T03:43:36;100148.63;;;3.09;88.23
72570;BME280;60594;50.204;8.844;2023-04-26T03:46:03;100144.19;;;3.09;87.96
72570;BME280;60594;50.204;8.844;2023-04-26T03:48:29;100138.84;;;3.11;87.82
72570;BME280;60594;50.204;8.844;2023-04-26T03:50:56;100144.38;;;3.06;87.63
72570;BME280;60594;50.204;8.844;2023-04-26T03:53:22;100137.72;;;2.99;87.84
72570;BME280;60594;50.204;8.844;2023-04-26T03:55:49;100144.38;;;3.06;87.04
72570;BME280;60594;50.204;8.844;2023-04-26T03:58:15;100150.63;;;3.04;87.33
72570;BME280;60594;50.204;8.844;2023-04-26T04:00:42;100149.34;;;2.95;87.71
72570;BME280;60594;50.204;8.844;2023-04-26T04:03:09;100152.88;;;2.94;87.65
72570;BME280;60594;50.204;8.844;2023-04-26T04:05:35;100160.16;;;2.89;87.53
72570;BME280;60594;50.204;8.844;2023-04-26T04:08:03;100152.81;;;2.79;89.29
72570;BME280;60594;50.204;8.844;2023-04-26T04:10:30;100155.44;;;2.79;89.20
72570;BME280;60594;50.204;8.844;2023-04-26T04:12:56;100153.88;;;2.75;89.26
72570;BME280;60594;50.204;8.844;2023-04-26T04:15:22;100154.56;;;2.78;88.58
72570;BME280;60594;50.204;8.844;2023-04-26T04:17:49;100154.50;;;2.80;88.22
72570;BME280;60594;50.204;8.844;2023-04-26T04:20:16;100153.03;;;2.74;88.63
72570;BME280;60594;50.204;8.844;2023-04-26T04:22:43;100155.09;;;2.68;89.02
72570;BME280;60594;50.204;8.844;2023-04-26T04:25:09;100151.69;;;2.66;89.55
72570;BME280;60594;50.204;8.844;2023-04-26T04:27:36;100155.88;;;2.70;88.79
72570;BME280;60594;50.204;8.844;2023-04-26T04:30:04;100154.25;;;2.67;89.57
72570;BME280;60594;50.204;8.844;2023-04-26T04:32:34;100145.34;;;2.70;89.49
72570;BME280;60594;50.204;8.844;2023-04-26T04:35:01;100154.25;;;2.67;90.15
72570;BME280;60594;50.204;8.844;2023-04-26T04:37:27;100162.22;;;2.66;90.94
72570;BME280;60594;50.204;8.844;2023-04-26T04:39:54;100155.09;;;2.68;89.95
72570;BME280;60594;50.204;8.844;2023-04-26T04:42:21;100160.44;;;2.66;91.24
72570;BME280;60594;50.204;8.844;2023-04-26T04:44:49;100175.16;;;2.70;91.69
72570;BME280;60594;50.204;8.844;2023-04-26T04:47:16;100166.72;;;2.64;91.59
72570;BME280;60594;50.204;8.844;2023-04-26T04:49:43;100169.88;;;2.70;90.95
72570;BME280;60594;50.204;8.844;2023-04-26T04:52:10;100171.44;;;2.74;90.97
72570;BME280;60594;50.204;8.844;2023-04-26T04:54:37;100173.06;;;2.77;91.59
72570;BME280;60594;50.204;8.844;2023-04-26T04:57:04;100171.97;;;2.81;91.50
72570;BME280;60594;50.204;8.844;2023-04-26T04:59:31;100180.66;;;2.83;91.58
72570;BME280;60594;50.204;8.844;2023-04-26T05:01:58;100182.44;;;2.82;91.10
72570;BME280;60594;50.204;8.844;2023-04-26T05:04:25;100184.31;;;2.80;92.04
72570;BME280;60594;50.204;8.844;2023-04-26T05:06:51;100186.28;;;2.75;92.21
72570;BME280;60594;50.204;8.844;2023-04-26T05:09:18;100194.09;;;2.77;92.72
72570;BME280;60594;50.204;8.844;2023-04-26T05:11:45;100201.59;;;2.67;92.77
72570;BME280;60594;50.204;8.844;2023-04-26T05:14:12;100201.50;;;2.33;92.94
72570;BME280;60594;50.204;8.844;2023-04-26T05:16:39;100201.91;;;2.24;94.58
72570;BME280;60594;50.204;8.844;2023-04-26T05:19:06;100197.88;;;2.36;94.47
72570;BME280;60594;50.204;8.844;2023-04-26T05:21:32;100198.50;;;2.41;94.44
72570;BME280;60594;50.204;8.844;2023-04-26T05:23:59;100207.22;;;2.60;94.17
72570;BME280;60594;50.204;8.844;2023-04-26T05:26:26;100208.34;;;2.73;93.29
72570;BME280;60594;50.204;8.844;2023-04-26T05:28:52;100211.44;;;2.81;91.96
72570;BME280;60594;50.204;8.844;2023-04-26T05:31:25;100219.94;;;2.69;93.59
72570;BME280;60594;50.204;8.844;2023-04-26T05:34:01;100221.13;;;2.80;94.93
72570;BME280;60594;50.204;8.844;2023-04-26T05:36:35;100221.75;;;2.85;94.51
72570;BME280;60594;50.204;8.844;2023-04-26T05:39:01;100217.59;;;2.98;94.97
72570;BME280;60594;50.204;8.844;2023-04-26T05:41:31;100222.63;;;3.03;94.34
72570;BME280;60594;50.204;8.844;2023-04-26T05:43:58;100226.66;;;3.10;94.76
72570;BME280;60594;50.204;8.844;2023-04-26T05:46:25;100229.09;;;3.14;94.75
72570;BME280;60594;50.204;8.844;2023-04-26T05:48:52;100235.34;;;3.29;94.42
72570;BME280;60594;50.204;8.844;2023-04-26T05:51:19;100234.69;;;2.90;95.20
72570;BME280;60594;50.204;8.844;2023-04-26T05:53:46;100224.84;;;2.58;96.31
72570;BME280;60594;50.204;8.844;2023-04-26T05:56:13;100230.88;;;2.60;97.63
72570;BME280;60594;50.204;8.844;2023-04-26T05:58:40;100230.72;;;2.81;98.02
72570;BME280;60594;50.204;8.844;2023-04-26T06:01:06;100225.72;;;2.94;97.14
72570;BME280;60594;50.204;8.844;2023-04-26T06:03:34;100235.34;;;2.76;96.97
72570;BME280;60594;50.204;8.844;2023-04-26T06:06:00;100244.31;;;3.08;97.09
72570;BME280;60594;50.204;8.844;2023-04-26T06:08:27;100238.78;;;3.31;95.29
72570;BME280;60594;50.204;8.844;2023-04-26T06:10:54;100238.69;;;3.15;94.61
72570;BME280;60594;50.204;8.844;2023-04-26T06:13:21;100247.59;;;3.13;95.76
72570;BME280;60594;50.204;8.844;2023-04-26T06:15:47;100244.94;;;3.30;95.38
72570;BME280;60594;50.204;8.844;2023-04-26T06:18:14;100260.41;;;3.54;95.62
72570;BME280;60594;50.204;8.844;2023-04-26T06:20:41;100256.19;;;3.85;94.35
72570;BME280;60594;50.204;8.844;2023-04-26T06:23:08;100258.97;;;3.99;93.65
72570;BME280;60594;50.204;8.844;2023-04-26T06:25:34;100254.81;;;4.10;90.90
72570;BME280;60594;50.204;8.844;2023-04-26T06:28:02;100261.03;;;3.92;92.67
72570;BME280;60594;50.204;8.844;2023-04-26T06:30:29;100249.31;;;3.98;92.57
72570;BME280;60594;50.204;8.844;2023-04-26T06:32:57;100246.72;;;4.13;91.60
72570;BME280;60594;50.204;8.844;2023-04-26T06:35:25;100258.94;;;4.31;90.36
72570;BME280;60594;50.204;8.844;2023-04-26T06:37:52;100259.28;;;4.41;88.82
72570;BME280;60594;50.204;8.844;2023-04-26T06:40:19;100254.53;;;4.47;89.10
72570;BME280;60594;50.204;8.844;2023-04-26T06:42:46;100259.22;;;4.42;90.00
72570;BME280;60594;50.204;8.844;2023-04-26T06:45:16;100256.03;;;4.20;85.25
72570;BME280;60594;50.204;8.844;2023-04-26T06:47:44;100262.53;;;4.46;81.87
72570;BME280;60594;50.204;8.844;2023-04-26T06:50:11;100265.78;;;4.51;84.32
72570;BME280;60594;50.204;8.844;2023-04-26T06:52:38;100262.44;;;4.47;85.12
72570;BME280;60594;50.204;8.844;2023-04-26T06:55:04;100263.97;;;4.51;86.45
72570;BME280;60594;50.204;8.844;2023-04-26T06:57:32;100263.41;;;4.77;83.77
72570;BME280;60594;50.204;8.844;2023-04-26T06:59:59;100263.41;;;4.93;82.37
72570;BME280;60594;50.204;8.844;2023-04-26T07:02:25;100267.69;;;4.80;84.58
72570;BME280;60594;50.204;8.844;2023-04-26T07:04:52;100259.91;;;4.77;85.04
72570;BME280;60594;50.204;8.844;2023-04-26T07:07:18;100261.53;;;4.79;84.38
72570;BME280;60594;50.204;8.844;2023-04-26T07:09:45;100266.91;;;4.93;84.61
72570;BME280;60594;50.204;8.844;2023-04-26T07:12:12;100262.03;;;5.17;84.13
72570;BME280;60594;50.204;8.844;2023-04-26T07:14:39;100263.47;;;5.07;81.31
72570;BME280;60594;50.204;8.844;2023-04-26T07:17:06;100254.28;;;5.14;82.01
72570;BME280;60594;50.204;8.844;2023-04-26T07:19:32;100263.41;;;5.38;80.11
72570;BME280;60594;50.204;8.844;2023-04-26T07:21:59;100259.50;;;5.29;79.67
72570;BME280;60594;50.204;8.844;2023-04-26T07:24:26;100257.28;;;5.37;80.08
72570;BME280;60594;50.204;8.844;2023-04-26T07:26:54;100259.41;;;5.31;81.54
72570;BME280;60594;50.204;8.844;2023-04-26T07:29:20;100261.06;;;5.33;82.07
72570;BME280;60594;50.204;8.844;2023-04-26T07:31:47;100264.09;;;5.41;81.64
72570;BME280;60594;50.204;8.844;2023-04-26T07:34:14;100252.31;;;5.47;82.07
72570;BME280;60594;50.204;8.844;2023-04-26T07:36:41;100250.94;;;5.69;78.66
72570;BME280;60594;50.204;8.844;2023-04-26T07:39:07;100257.44;;;5.93;78.59
72570;BME280;60594;50.204;8.844;2023-04-26T07:41:36;100254.25;;;6.02;71.73
72570;BME280;60594;50.204;8.844;2023-04-26T07:44:02;100247.63;;;6.09;75.36
72570;BME280;60594;50.204;8.844;2023-04-26T07:46:32;100243.75;;;6.15;75.29
72570;BME280;60594;50.204;8.844;2023-04-26T07:48:58;100254.00;;;6.35;74.01
72570;BME280;60594;50.204;8.844;2023-04-26T07:51:24;100256.81;;;6.46;69.29
72570;BME280;60594;50.204;8.844;2023-04-26T07:53:52;100244.31;;;6.34;68.13
72570;BME280;60594;50.204;8.844;2023-04-26T07:56:20;100251.69;;;6.57;67.89
72570;BME280;60594;50.204;8.844;2023-04-26T07:58:49;100254.53;;;6.54;69.55
72570;BME280;60594;50.204;8.844;2023-04-26T08:01:15;100254.72;;;6.65;68.24
72570;BME280;60594;50.204;8.844;2023-04-26T08:03:42;100257.34;;;6.79;68.99
72570;BME280;60594;50.204;8.844;2023-04-26T08:06:08;100257.28;;;6.93;65.43
72570;BME280;60594;50.204;8.844;2023-04-26T08:08:35;100245.44;;;6.98;66.38
72570;BME280;60594;50.204;8.844;2023-04-26T08:11:08;100253.75;;;7.07;66.97
72570;BME280;60594;50.204;8.844;2023-04-26T08:13:37;100254.06;;;7.02;67.69
72570;BME280;60594;50.204;8.844;2023-04-26T08:16:05;100258.88;;;7.22;64.85
72570;BME280;60594;50.204;8.844;2023-04-26T08:18:31;100262.66;;;7.32;64.52
72570;BME280;60594;50.204;8.844;2023-04-26T08:20:58;100251.50;;;7.40;64.96
72570;BME280;60594;50.204;8.844;2023-04-26T08:23:25;100257.44;;;7.31;62.82
72570;BME280;60594;50.204;8.844;2023-04-26T08:25:51;100255.50;;;7.20;65.61
72570;BME280;60594;50.204;8.844;2023-04-26T08:28:18;100256.03;;;7.25;64.67
72570;BME280;60594;50.204;8.844;2023-04-26T08:30:44;100254.84;;;7.17;64.53
72570;BME280;60594;50.204;8.844;2023-04-26T08:33:11;100258.50;;;7.28;65.05
72570;BME280;60594;50.204;8.844;2023-04-26T08:35:37;100255.88;;;7.41;65.85
72570;BME280;60594;50.204;8.844;2023-04-26T08:38:03;100262.22;;;7.77;67.02
72570;BME280;60594;50.204;8.844;2023-04-26T08:40:30;100249.63;;;7.81;62.19
72570;BME280;60594;50.204;8.844;2023-04-26T08:42:58;100244.63;;;8.01;64.00
72570;BME280;60594;50.204;8.844;2023-04-26T08:45:24;100251.41;;;7.93;61.22
72570;BME280;60594;50.204;8.844;2023-04-26T08:47:57;100245.16;;;8.19;62.32
72570;BME280;60594;50.204;8.844;2023-04-26T08:50:28;100248.56;;;8.46;61.82
72570;BME280;60594;50.204;8.844;2023-04-26T08:52:55;100241.84;;;8.53;61.22
72570;BME280;60594;50.204;8.844;2023-04-26T08:55:22;100233.78;;;8.90;59.98
72570;BME280;60594;50.204;8.844;2023-04-26T08:57:49;100238.44;;;9.23;59.33
72570;BME280;60594;50.204;8.844;2023-04-26T09:00:17;100244.97;;;9.53;57.99
72570;BME280;60594;50.204;8.844;2023-04-26T09:02:51;100237.06;;;9.41;57.27
72570;BME280;60594;50.204;8.844;2023-04-26T09:05:18;100228.75;;;9.45;57.87
72570;BME280;60594;50.204;8.844;2023-04-26T09:07:59;100236.72;;;9.80;60.57
72570;BME280;60594;50.204;8.844;2023-04-26T09:10:27;100229.22;;;9.85;55.49
72570;BME280;60594;50.204;8.844;2023-04-26T09:12:55;100236.34;;;9.84;55.33
72570;BME280;60594;50.204;8.844;2023-04-26T09:15:22;100227.03;;;9.79;57.19
72570;BME280;60594;50.204;8.844;2023-04-26T09:17:49;100228.47;;;9.72;58.42
72570;BME280;60594;50.204;8.844;2023-04-26T09:22:43;100233.75;;;9.26;61.29
72570;BME280;60594;50.204;8.844;2023-04-26T09:25:11;100230.13;;;9.27;56.21
72570;BME280;60594;50.204;8.844;2023-04-26T09:27:42;100225.41;;;9.07;60.89
72570;BME280;60594;50.204;8.844;2023-04-26T09:30:16;100230.59;;;8.85;58.74
72570;BME280;60594;50.204;8.844;2023-04-26T09:32:48;100235.00;;;8.74;57.57
72570;BME280;60594;50.204;8.844;2023-04-26T09:35:23;100235.09;;;8.85;59.97
72570;BME280;60594;50.204;8.844;2023-04-26T09:38:04;100223.03;;;8.68;56.21
72570;BME280;60594;50.204;8.844;2023-04-26T09:40:35;100224.69;;;8.82;57.68
72570;BME280;60594;50.204;8.844;2023-04-26T09:43:05;100229.22;;;9.16;55.65
72570;BME280;60594;50.204;8.844;2023-04-26T09:45:51;100227.25;;;9.30;59.09
72570;BME280;60594;50.204;8.844;2023-04-26T09:48:28;100223.22;;;9.01;56.71
72570;BME280;60594;50.204;8.844;2023-04-26T09:51:08;100226.00;;;9.23;60.50
72570;BME280;60594;50.204;8.844;2023-04-26T09:53:41;100220.47;;;9.26;61.17
72570;BME280;60594;50.204;8.844;2023-04-26T09:56:15;100218.88;;;9.00;58.45
72570;BME280;60594;50.204;8.844;2023-04-26T10:01:14;100219.81;;;8.99;57.00
72570;BME280;60594;50.204;8.844;2023-04-26T10:03:43;100215.91;;;9.16;55.64
72570;BME280;60594;50.204;8.844;2023-04-26T10:06:11;100214.22;;;9.38;61.17
72570;BME280;60594;50.204;8.844;2023-04-26T10:08:38;100212.38;;;9.28;55.50
72570;BME280;60594;50.204;8.844;2023-04-26T10:11:05;100215.50;;;9.56;56.31
72570;BME280;60594;50.204;8.844;2023-04-26T10:13:40;100209.72;;;9.73;55.23
72570;BME280;60594;50.204;8.844;2023-04-26T10:16:08;100214.63;;;9.56;52.15
72570;BME280;60594;50.204;8.844;2023-04-26T10:18:35;100204.34;;;9.51;54.78
72570;BME280;60594;50.204;8.844;2023-04-26T10:21:12;100207.59;;;9.89;54.32
72570;BME280;60594;50.204;8.844;2023-04-26T10:23:42;100205.25;;;10.19;52.21
72570;BME280;60594;50.204;8.844;2023-04-26T10:29:23;100204.94;;;9.89;50.98
72570;BME280;60594;50.204;8.844;2023-04-26T10:32:17;100203.38;;;9.52;53.80
72570;BME280;60594;50.204;8.844;2023-04-26T10:35:11;100202.06;;;9.00;53.36
72570;BME280;60594;50.204;8.844;2023-04-26T10:40:33;100198.22;;;9.27;55.74
72570;BME280;60594;50.204;8.844;2023-04-26T10:45:37;100196.41;;;9.28;55.07
72570;BME280;60594;50.204;8.844;2023-04-26T10:48:14;100193.84;;;9.50;53.67
72570;BME280;60594;50.204;8.844;2023-04-26T10:56:16;100193.38;;;9.32;58.16
72570;BME280;60594;50.204;8.844;2023-04-26T10:59:07;100186.94;;;9.24;54.75
72570;BME280;60594;50.204;8.844;2023-04-26T11:01:34;100192.34;;;9.46;52.92
72570;BME280;60594;50.204;8.844;2023-04-26T11:04:09;100180.78;;;9.58;52.14
72570;BME280;60594;50.204;8.844;2023-04-26T11:06:54;100180.97;;;9.78;51.62
72570;BME280;60594;50.204;8.844;2023-04-26T11:09:40;100173.91;;;9.66;52.15
72570;BME280;60594;50.204;8.844;2023-04-26T11:12:14;100177.44;;;9.78;52.11
72570;BME280;60594;50.204;8.844;2023-04-26T11:14:41;100173.22;;;9.86;54.40
72570;BME280;60594;50.204;8.844;2023-04-26T11:17:08;100173.44;;;9.83;54.99
72570;BME280;60594;50.204;8.844;2023-04-26T11:19:36;100166.59;;;10.03;55.16
72570;BME280;60594;50.204;8.844;2023-04-26T11:22:05;100163.78;;;9.93;54.27
72570;BME280;60594;50.204;8.844;2023-04-26T11:24:33;100175.75;;;9.77;50.53
72570;BME280;60594;50.204;8.844;2023-04-26T11:27:07;100168.06;;;9.50;53.86
72570;BME280;60594;50.204;8.844;2023-04-26T11:29:35;100170.72;;;9.50;52.92
72570;BME280;60594;50.204;8.844;2023-04-26T11:32:01;100165.00;;;9.89;51.50
72570;BME280;60594;50.204;8.844;2023-04-26T11:34:33;100161.72;;;9.86;51.01
72570;BME280;60594;50.204;8.844;2023-04-26T11:37:03;100160.03;;;9.96;51.29
72570;BME280;60594;50.204;8.844;2023-04-26T11:39:36;100156.94;;;10.24;51.49
72570;BME280;60594;50.204;8.844;2023-04-26T11:42:07;100148.81;;;9.92;50.31
72570;BME280;60594;50.204;8.844;2023-04-26T11:44:34;100152.44;;;10.24;49.48
72570;BME280;60594;50.204;8.844;2023-04-26T11:47:01;100144.66;;;10.43;49.01
72570;BME280;60594;50.204;8.844;2023-04-26T11:49:32;100159.13;;;10.84;49.90
72570;BME280;60594;50.204;8.844;2023-04-26T11:51:59;100161.75;;;10.95;49.16
72570;BME280;60594;50.204;8.844;2023-04-26T11:54:33;100156.75;;;11.01;53.83
72570;BME280;60594;50.204;8.844;2023-04-26T11:57:00;100151.13;;;10.84;48.43
72570;BME280;60594;50.204;8.844;2023-04-26T11:59:29;100147.06;;;10.69;49.50
72570;BME280;60594;50.204;8.844;2023-04-26T12:01:56;100148.22;;;10.87;49.28
72570;BME280;60594;50.204;8.844;2023-04-26T12:04:27;100138.94;;;11.02;49.74
72570;BME280;60594;50.204;8.844;2023-04-26T12:06:57;100142.63;;;11.21;52.45
72570;BME280;60594;50.204;8.844;2023-04-26T12:09:26;100143.56;;;11.31;50.23
72570;BME280;60594;50.204;8.844;2023-04-26T12:11:57;100139.97;;;11.42;48.50
72570;BME280;60594;50.204;8.844;2023-04-26T12:14:35;100143.00;;;11.17;46.45
72570;BME280;60594;50.204;8.844;2023-04-26T12:17:03;100136.56;;;11.71;47.04
72570;BME280;60594;50.204;8.844;2023-04-26T12:19:34;100136.13;;;11.96;44.68
72570;BME280;60594;50.204;8.844;2023-04-26T12:22:05;100132.16;;;11.91;43.35
72570;BME280;60594;50.204;8.844;2023-04-26T12:24:33;100139.03;;;11.63;43.10
72570;BME280;60594;50.204;8.844;2023-04-26T12:27:02;100134.28;;;11.67;50.87
72570;BME280;60594;50.204;8.844;2023-04-26T12:29:31;100137.66;;;11.69;45.79
72570;BME280;60594;50.204;8.844;2023-04-26T12:31:58;100136.06;;;11.25;44.63
72570;BME280;60594;50.204;8.844;2023-04-26T12:34:25;100123.31;;;11.49;47.14
72570;BME280;60594;50.204;8.844;2023-04-26T12:36:51;100112.91;;;11.87;46.22
72570;BME280;60594;50.204;8.844;2023-04-26T12:39:18;100121.00;;;12.06;45.52
72570;BME280;60594;50.204;8.844;2023-04-26T12:41:44;100117.81;;;12.22;42.61
72570;BME280;60594;50.204;8.844;2023-04-26T12:44:12;100111.56;;;11.72;43.45
72570;BME280;60594;50.204;8.844;2023-04-26T12:46:39;100132.38;;;11.06;45.66
72570;BME280;60594;50.204;8.844;2023-04-26T12:49:06;100128.22;;;11.13;44.89
72570;BME280;60594;50.204;8.844;2023-04-26T12:51:32;100109.56;;;11.33;46.75
72570;BME280;60594;50.204;8.844;2023-04-26T12:53:59;100115.44;;;11.48;47.77
72570;BME280;60594;50.204;8.844;2023-04-26T12:56:25;100113.63;;;11.69;48.15
72570;BME280;60594;50.204;8.844;2023-04-26T12:58:52;100114.66;;;11.77;43.27
72570;BME280;60594;50.204;8.844;2023-04-26T13:01:19;100117.00;;;11.30;44.37
72570;BME280;60594;50.204;8.844;2023-04-26T13:03:46;100121.28;;;11.42;44.91
72570;BME280;60594;50.204;8.844;2023-04-26T13:06:12;100120.50;;;11.51;46.28
72570;BME280;60594;50.204;8.844;2023-04-26T13:08:39;100125.59;;;11.54;50.19
72570;BME280;60594;50.204;8.844;2023-04-26T13:11:06;100122.31;;;11.61;43.73
72570;BME280;60594;50.204;8.844;2023-04-26T13:13:32;100122.72;;;11.25;46.14
72570;BME280;60594;50.204;8.844;2023-04-26T13:15:59;100127.78;;;11.08;49.85
72570;BME280;60594;50.204;8.844;2023-04-26T13:18:26;100120.91;;;11.26;50.60
72570;BME280;60594;50.204;8.844;2023-04-26T13:20:52;100115.59;;;10.94;46.26
72570;BME280;60594;50.204;8.844;2023-04-26T13:23:19;100112.44;;;11.21;47.76